sensor_id;sensor_type;location;lat;lon;timestamp;P1;durP1;ratioP1;P2;durP2;ratioP2
52031;SDS011;38044;45.148;39.604;2024-03-08T00:00:08;39.22;;;24.05;;
52031;SDS011;38044;45.148;39.604;2024-03-08T00:02:37;37.53;;;26.83;;
52031;SDS011;38044;45.148;39.604;2024-03-08T00:05:07;40.35;;;27.40;;
52031;SDS011;38044;45.148;39.604;2024-03-08T00:07:37;36.63;;;25.88;;
52031;SDS011;38044;45.148;39.604;2024-03-08T00:10:04;35.22;;;25.00;;
52031;SDS011;38044;45.148;39.604;2024-03-08T00:12:30;40.58;;;27.15;;
52031;SDS011;38044;45.148;39.604;2024-03-08T00:14:56;34.90;;;25.48;;
52031;SDS011;38044;45.148;39.604;2024-03-08T00:17:22;32.88;;;24.50;;
52031;SDS011;38044;45.148;39.604;2024-03-08T00:19:49;36.30;;;24.25;;
52031;SDS011;38044;45.148;39.604;2024-03-08T00:22:17;35.33;;;24.40;;
52031;SDS011;38044;45.148;39.604;2024-03-08T00:24:43;34.20;;;23.75;;
52031;SDS011;38044;45.148;39.604;2024-03-08T00:27:10;33.20;;;23.77;;
52031;SDS011;38044;45.148;39.604;2024-03-08T00:29:36;34.17;;;24.73;;
52031;SDS011;38044;45.148;39.604;2024-03-08T00:32:05;34.05;;;24.25;;
52031;SDS011;38044;45.148;39.604;2024-03-08T00:34:35;34.42;;;23.70;;
52031;SDS011;38044;45.148;39.604;2024-03-08T00:37:02;33.47;;;23.65;;
52031;SDS011;38044;45.148;39.604;2024-03-08T00:39:29;33.80;;;24.02;;
52031;SDS011;38044;45.148;39.604;2024-03-08T00:41:55;30.33;;;22.25;;
52031;SDS011;38044;45.148;39.604;2024-03-08T00:44:21;33.45;;;23.50;;
52031;SDS011;38044;45.148;39.604;2024-03-08T00:46:47;34.88;;;24.58;;
52031;SDS011;38044;45.148;39.604;2024-03-08T00:49:13;35.60;;;23.88;;
52031;SDS011;38044;45.148;39.604;2024-03-08T00:51:39;32.55;;;24.40;;
52031;SDS011;38044;45.148;39.604;2024-03-08T00:54:04;33.45;;;24.10;;
52031;SDS011;38044;45.148;39.604;2024-03-08T00:56:31;32.08;;;23.73;;
52031;SDS011;38044;45.148;39.604;2024-03-08T00:58:58;32.83;;;22.13;;
52031;SDS011;38044;45.148;39.604;2024-03-08T01:01:25;35.88;;;23.80;;
52031;SDS011;38044;45.148;39.604;2024-03-08T01:03:51;34.15;;;23.77;;
52031;SDS011;38044;45.148;39.604;2024-03-08T01:06:17;30.58;;;21.90;;
52031;SDS011;38044;45.148;39.604;2024-03-08T01:08:43;32.20;;;22.80;;
52031;SDS011;38044;45.148;39.604;2024-03-08T01:11:10;32.72;;;22.13;;
52031;SDS011;38044;45.148;39.604;2024-03-08T01:13:38;31.27;;;21.92;;
52031;SDS011;38044;45.148;39.604;2024-03-08T01:16:03;31.85;;;22.05;;
52031;SDS011;38044;45.148;39.604;2024-03-08T01:18:30;32.53;;;22.85;;
52031;SDS011;38044;45.148;39.604;2024-03-08T01:20:55;30.52;;;21.98;;
52031;SDS011;38044;45.148;39.604;2024-03-08T01:23:22;29.40;;;19.85;;
52031;SDS011;38044;45.148;39.604;2024-03-08T01:25:48;33.95;;;22.02;;
52031;SDS011;38044;45.148;39.604;2024-03-08T01:28:17;30.02;;;21.35;;
52031;SDS011;38044;45.148;39.604;2024-03-08T01:30:43;31.02;;;20.80;;
52031;SDS011;38044;45.148;39.604;2024-03-08T01:33:10;31.55;;;21.83;;
52031;SDS011;38044;45.148;39.604;2024-03-08T01:35:36;27.85;;;20.38;;
52031;SDS011;38044;45.148;39.604;2024-03-08T01:38:02;29.88;;;21.38;;
52031;SDS011;38044;45.148;39.604;2024-03-08T01:40:30;28.20;;;20.23;;
52031;SDS011;38044;45.148;39.604;2024-03-08T01:42:56;29.73;;;19.95;;
52031;SDS011;38044;45.148;39.604;2024-03-08T01:45:21;26.35;;;19.65;;
52031;SDS011;38044;45.148;39.604;2024-03-08T01:47:47;25.95;;;18.63;;
52031;SDS011;38044;45.148;39.604;2024-03-08T01:50:13;26.27;;;20.00;;
52031;SDS011;38044;45.148;39.604;2024-03-08T01:52:41;26.58;;;19.30;;
52031;SDS011;38044;45.148;39.604;2024-03-08T01:55:07;27.40;;;19.80;;
52031;SDS011;38044;45.148;39.604;2024-03-08T01:57:35;26.52;;;19.27;;
52031;SDS011;38044;45.148;39.604;2024-03-08T02:00:02;28.95;;;19.70;;
52031;SDS011;38044;45.148;39.604;2024-03-08T02:02:29;26.60;;;18.27;;
52031;SDS011;38044;45.148;39.604;2024-03-08T02:05:00;27.15;;;18.42;;
52031;SDS011;38044;45.148;39.604;2024-03-08T02:07:26;25.80;;;18.20;;
52031;SDS011;38044;45.148;39.604;2024-03-08T02:09:52;24.05;;;17.88;;
52031;SDS011;38044;45.148;39.604;2024-03-08T02:12:18;26.17;;;19.13;;
52031;SDS011;38044;45.148;39.604;2024-03-08T02:14:46;23.90;;;16.80;;
52031;SDS011;38044;45.148;39.604;2024-03-08T02:17:12;23.85;;;17.33;;
52031;SDS011;38044;45.148;39.604;2024-03-08T02:19:38;24.65;;;17.98;;
52031;SDS011;38044;45.148;39.604;2024-03-08T02:22:04;26.05;;;17.02;;
52031;SDS011;38044;45.148;39.604;2024-03-08T02:24:31;22.95;;;16.67;;
52031;SDS011;38044;45.148;39.604;2024-03-08T02:26:58;21.52;;;16.42;;
52031;SDS011;38044;45.148;39.604;2024-03-08T02:29:24;22.13;;;16.40;;
52031;SDS011;38044;45.148;39.604;2024-03-08T02:31:51;23.65;;;16.23;;
52031;SDS011;38044;45.148;39.604;2024-03-08T02:34:17;23.27;;;16.17;;
52031;SDS011;38044;45.148;39.604;2024-03-08T02:36:43;22.25;;;15.75;;
52031;SDS011;38044;45.148;39.604;2024-03-08T02:39:09;20.55;;;15.48;;
52031;SDS011;38044;45.148;39.604;2024-03-08T02:41:36;22.38;;;15.30;;
52031;SDS011;38044;45.148;39.604;2024-03-08T02:44:02;23.33;;;16.17;;
52031;SDS011;38044;45.148;39.604;2024-03-08T02:46:29;24.27;;;16.65;;
52031;SDS011;38044;45.148;39.604;2024-03-08T02:48:55;25.38;;;17.38;;
52031;SDS011;38044;45.148;39.604;2024-03-08T02:51:21;23.65;;;15.68;;
52031;SDS011;38044;45.148;39.604;2024-03-08T02:53:47;24.17;;;18.65;;
52031;SDS011;38044;45.148;39.604;2024-03-08T02:56:14;25.17;;;18.90;;
52031;SDS011;38044;45.148;39.604;2024-03-08T02:58:42;24.45;;;19.23;;
52031;SDS011;38044;45.148;39.604;2024-03-08T03:01:08;25.80;;;18.98;;
52031;SDS011;38044;45.148;39.604;2024-03-08T03:03:35;25.48;;;19.40;;
52031;SDS011;38044;45.148;39.604;2024-03-08T03:06:02;26.65;;;18.88;;
52031;SDS011;38044;45.148;39.604;2024-03-08T03:08:28;26.00;;;18.50;;
52031;SDS011;38044;45.148;39.604;2024-03-08T03:10:53;23.25;;;16.75;;
52031;SDS011;38044;45.148;39.604;2024-03-08T03:13:21;25.67;;;16.88;;
52031;SDS011;38044;45.148;39.604;2024-03-08T03:15:48;22.17;;;15.63;;
52031;SDS011;38044;45.148;39.604;2024-03-08T03:18:14;21.80;;;15.95;;
52031;SDS011;38044;45.148;39.604;2024-03-08T03:20:41;21.02;;;15.00;;
52031;SDS011;38044;45.148;39.604;2024-03-08T03:23:10;22.42;;;14.90;;
52031;SDS011;38044;45.148;39.604;2024-03-08T03:25:39;20.33;;;15.18;;
52031;SDS011;38044;45.148;39.604;2024-03-08T03:28:06;22.08;;;15.18;;
52031;SDS011;38044;45.148;39.604;2024-03-08T03:30:33;19.90;;;14.45;;
52031;SDS011;38044;45.148;39.604;2024-03-08T03:32:59;22.00;;;15.90;;
52031;SDS011;38044;45.148;39.604;2024-03-08T03:35:26;19.25;;;13.70;;
52031;SDS011;38044;45.148;39.604;2024-03-08T03:37:54;20.42;;;15.13;;
52031;SDS011;38044;45.148;39.604;2024-03-08T03:40:32;18.17;;;13.82;;
52031;SDS011;38044;45.148;39.604;2024-03-08T03:42:59;21.15;;;14.32;;
52031;SDS011;38044;45.148;39.604;2024-03-08T03:45:25;19.80;;;14.38;;
52031;SDS011;38044;45.148;39.604;2024-03-08T03:47:51;18.90;;;13.77;;
52031;SDS011;38044;45.148;39.604;2024-03-08T03:50:20;20.63;;;14.75;;
52031;SDS011;38044;45.148;39.604;2024-03-08T03:52:47;23.90;;;13.70;;
52031;SDS011;38044;45.148;39.604;2024-03-08T03:55:14;17.30;;;13.38;;
52031;SDS011;38044;45.148;39.604;2024-03-08T03:57:40;19.73;;;14.55;;
52031;SDS011;38044;45.148;39.604;2024-03-08T04:00:06;17.48;;;12.77;;
52031;SDS011;38044;45.148;39.604;2024-03-08T04:02:37;18.15;;;13.75;;
52031;SDS011;38044;45.148;39.604;2024-03-08T04:05:05;19.35;;;13.25;;
52031;SDS011;38044;45.148;39.604;2024-03-08T04:07:31;18.17;;;13.95;;
52031;SDS011;38044;45.148;39.604;2024-03-08T04:09:57;21.20;;;14.10;;
52031;SDS011;38044;45.148;39.604;2024-03-08T04:12:23;20.50;;;13.57;;
52031;SDS011;38044;45.148;39.604;2024-03-08T04:14:49;18.00;;;13.52;;
52031;SDS011;38044;45.148;39.604;2024-03-08T04:17:15;17.60;;;12.93;;
52031;SDS011;38044;45.148;39.604;2024-03-08T04:19:42;18.65;;;13.02;;
52031;SDS011;38044;45.148;39.604;2024-03-08T04:22:07;21.40;;;14.13;;
52031;SDS011;38044;45.148;39.604;2024-03-08T04:24:33;21.45;;;13.35;;
52031;SDS011;38044;45.148;39.604;2024-03-08T04:27:03;19.40;;;13.65;;
52031;SDS011;38044;45.148;39.604;2024-03-08T04:29:33;18.15;;;13.43;;
52031;SDS011;38044;45.148;39.604;2024-03-08T04:32:05;18.10;;;12.77;;
52031;SDS011;38044;45.148;39.604;2024-03-08T04:34:37;19.38;;;13.82;;
52031;SDS011;38044;45.148;39.604;2024-03-08T04:37:06;18.85;;;13.73;;
52031;SDS011;38044;45.148;39.604;2024-03-08T04:39:36;19.30;;;13.10;;
52031;SDS011;38044;45.148;39.604;2024-03-08T04:42:02;22.60;;;13.65;;
52031;SDS011;38044;45.148;39.604;2024-03-08T04:44:29;18.05;;;12.93;;
52031;SDS011;38044;45.148;39.604;2024-03-08T04:46:56;20.23;;;13.55;;
52031;SDS011;38044;45.148;39.604;2024-03-08T04:49:22;17.02;;;13.13;;
52031;SDS011;38044;45.148;39.604;2024-03-08T04:51:48;20.02;;;13.88;;
52031;SDS011;38044;45.148;39.604;2024-03-08T04:54:14;18.95;;;13.00;;
52031;SDS011;38044;45.148;39.604;2024-03-08T04:56:40;21.52;;;14.20;;
52031;SDS011;38044;45.148;39.604;2024-03-08T04:59:06;17.73;;;12.57;;
52031;SDS011;38044;45.148;39.604;2024-03-08T05:01:33;21.33;;;14.90;;
52031;SDS011;38044;45.148;39.604;2024-03-08T05:04:03;20.90;;;14.43;;
52031;SDS011;38044;45.148;39.604;2024-03-08T05:06:29;21.10;;;14.57;;
52031;SDS011;38044;45.148;39.604;2024-03-08T05:08:55;20.33;;;13.65;;
52031;SDS011;38044;45.148;39.604;2024-03-08T05:11:21;22.50;;;14.82;;
52031;SDS011;38044;45.148;39.604;2024-03-08T05:13:47;21.83;;;14.40;;
52031;SDS011;38044;45.148;39.604;2024-03-08T05:16:13;23.08;;;15.43;;
52031;SDS011;38044;45.148;39.604;2024-03-08T05:18:40;23.55;;;15.73;;
52031;SDS011;38044;45.148;39.604;2024-03-08T05:21:10;23.92;;;15.50;;
52031;SDS011;38044;45.148;39.604;2024-03-08T05:23:38;27.75;;;15.75;;
52031;SDS011;38044;45.148;39.604;2024-03-08T05:26:05;23.75;;;16.17;;
52031;SDS011;38044;45.148;39.604;2024-03-08T05:28:30;25.05;;;15.77;;
52031;SDS011;38044;45.148;39.604;2024-03-08T05:30:56;23.60;;;16.08;;
52031;SDS011;38044;45.148;39.604;2024-03-08T05:33:22;25.38;;;16.38;;
52031;SDS011;38044;45.148;39.604;2024-03-08T05:35:49;26.35;;;16.33;;
52031;SDS011;38044;45.148;39.604;2024-03-08T05:38:14;24.38;;;16.42;;
52031;SDS011;38044;45.148;39.604;2024-03-08T05:40:40;26.20;;;16.73;;
52031;SDS011;38044;45.148;39.604;2024-03-08T05:43:08;27.92;;;18.17;;
52031;SDS011;38044;45.148;39.604;2024-03-08T05:45:34;24.90;;;16.17;;
52031;SDS011;38044;45.148;39.604;2024-03-08T05:48:00;24.67;;;16.13;;
52031;SDS011;38044;45.148;39.604;2024-03-08T05:50:26;25.17;;;16.65;;
52031;SDS011;38044;45.148;39.604;2024-03-08T05:52:52;25.42;;;17.15;;
52031;SDS011;38044;45.148;39.604;2024-03-08T05:55:22;24.77;;;16.73;;
52031;SDS011;38044;45.148;39.604;2024-03-08T05:57:49;26.88;;;16.27;;
52031;SDS011;38044;45.148;39.604;2024-03-08T06:00:15;26.25;;;17.83;;
52031;SDS011;38044;45.148;39.604;2024-03-08T06:02:41;24.75;;;17.08;;
52031;SDS011;38044;45.148;39.604;2024-03-08T06:05:08;26.55;;;16.60;;
52031;SDS011;38044;45.148;39.604;2024-03-08T06:07:35;24.75;;;16.90;;
52031;SDS011;38044;45.148;39.604;2024-03-08T06:10:02;25.40;;;16.38;;
52031;SDS011;38044;45.148;39.604;2024-03-08T06:12:28;25.85;;;15.85;;
52031;SDS011;38044;45.148;39.604;2024-03-08T06:14:57;28.08;;;16.95;;
52031;SDS011;38044;45.148;39.604;2024-03-08T06:17:23;29.95;;;18.27;;
52031;SDS011;38044;45.148;39.604;2024-03-08T06:19:50;26.83;;;16.90;;
52031;SDS011;38044;45.148;39.604;2024-03-08T06:22:17;28.58;;;17.67;;
52031;SDS011;38044;45.148;39.604;2024-03-08T06:24:45;28.08;;;16.77;;
52031;SDS011;38044;45.148;39.604;2024-03-08T06:27:10;28.80;;;17.27;;
52031;SDS011;38044;45.148;39.604;2024-03-08T06:29:36;26.88;;;16.77;;
52031;SDS011;38044;45.148;39.604;2024-03-08T06:32:02;28.88;;;18.05;;
52031;SDS011;38044;45.148;39.604;2024-03-08T06:34:28;27.45;;;17.75;;
52031;SDS011;38044;45.148;39.604;2024-03-08T06:36:54;27.13;;;17.05;;
52031;SDS011;38044;45.148;39.604;2024-03-08T06:39:26;29.33;;;16.83;;
52031;SDS011;38044;45.148;39.604;2024-03-08T06:41:52;28.42;;;17.05;;
52031;SDS011;38044;45.148;39.604;2024-03-08T06:44:18;27.30;;;17.58;;
52031;SDS011;38044;45.148;39.604;2024-03-08T06:46:47;32.15;;;18.17;;
52031;SDS011;38044;45.148;39.604;2024-03-08T06:49:13;30.42;;;17.58;;
52031;SDS011;38044;45.148;39.604;2024-03-08T06:51:40;24.83;;;16.35;;
52031;SDS011;38044;45.148;39.604;2024-03-08T06:54:06;26.80;;;17.08;;
52031;SDS011;38044;45.148;39.604;2024-03-08T06:56:34;28.13;;;16.90;;
52031;SDS011;38044;45.148;39.604;2024-03-08T06:59:00;24.38;;;15.73;;
52031;SDS011;38044;45.148;39.604;2024-03-08T07:01:28;28.48;;;17.15;;
52031;SDS011;38044;45.148;39.604;2024-03-08T07:03:57;28.05;;;17.88;;
52031;SDS011;38044;45.148;39.604;2024-03-08T07:06:23;26.15;;;16.70;;
52031;SDS011;38044;45.148;39.604;2024-03-08T07:08:49;28.38;;;17.73;;
52031;SDS011;38044;45.148;39.604;2024-03-08T07:11:15;26.95;;;17.42;;
52031;SDS011;38044;45.148;39.604;2024-03-08T07:13:44;26.75;;;18.17;;
52031;SDS011;38044;45.148;39.604;2024-03-08T07:16:11;29.33;;;17.73;;
52031;SDS011;38044;45.148;39.604;2024-03-08T07:18:37;24.90;;;16.80;;
52031;SDS011;38044;45.148;39.604;2024-03-08T07:21:09;32.30;;;19.13;;
52031;SDS011;38044;45.148;39.604;2024-03-08T07:23:38;26.67;;;17.70;;
52031;SDS011;38044;45.148;39.604;2024-03-08T07:26:22;25.52;;;17.67;;
52031;SDS011;38044;45.148;39.604;2024-03-08T07:28:48;27.45;;;18.50;;
52031;SDS011;38044;45.148;39.604;2024-03-08T07:31:14;26.85;;;18.52;;
52031;SDS011;38044;45.148;39.604;2024-03-08T07:33:40;26.58;;;17.42;;
52031;SDS011;38044;45.148;39.604;2024-03-08T07:36:06;25.90;;;17.40;;
52031;SDS011;38044;45.148;39.604;2024-03-08T07:38:32;24.92;;;15.98;;
52031;SDS011;38044;45.148;39.604;2024-03-08T07:40:57;26.52;;;17.33;;
52031;SDS011;38044;45.148;39.604;2024-03-08T07:43:23;24.30;;;16.20;;
52031;SDS011;38044;45.148;39.604;2024-03-08T07:45:49;26.08;;;17.58;;
52031;SDS011;38044;45.148;39.604;2024-03-08T07:48:18;25.13;;;15.98;;
52031;SDS011;38044;45.148;39.604;2024-03-08T07:50:44;25.70;;;15.48;;
52031;SDS011;38044;45.148;39.604;2024-03-08T07:53:09;28.40;;;17.77;;
52031;SDS011;38044;45.148;39.604;2024-03-08T07:55:35;27.55;;;18.30;;
52031;SDS011;38044;45.148;39.604;2024-03-08T07:58:02;26.90;;;17.55;;
52031;SDS011;38044;45.148;39.604;2024-03-08T08:00:28;29.20;;;17.23;;
52031;SDS011;38044;45.148;39.604;2024-03-08T08:02:56;29.55;;;16.88;;
52031;SDS011;38044;45.148;39.604;2024-03-08T08:05:22;27.02;;;17.55;;
52031;SDS011;38044;45.148;39.604;2024-03-08T08:07:48;26.65;;;17.05;;
52031;SDS011;38044;45.148;39.604;2024-03-08T08:10:15;28.42;;;17.23;;
52031;SDS011;38044;45.148;39.604;2024-03-08T08:12:48;24.70;;;16.95;;
52031;SDS011;38044;45.148;39.604;2024-03-08T08:15:14;29.75;;;16.10;;
52031;SDS011;38044;45.148;39.604;2024-03-08T08:17:43;31.90;;;18.10;;
52031;SDS011;38044;45.148;39.604;2024-03-08T08:20:10;29.38;;;18.27;;
52031;SDS011;38044;45.148;39.604;2024-03-08T08:22:41;28.50;;;18.65;;
52031;SDS011;38044;45.148;39.604;2024-03-08T08:25:10;26.75;;;17.02;;
52031;SDS011;38044;45.148;39.604;2024-03-08T08:27:38;28.05;;;17.58;;
52031;SDS011;38044;45.148;39.604;2024-03-08T08:30:10;28.83;;;17.75;;
52031;SDS011;38044;45.148;39.604;2024-03-08T08:32:37;29.60;;;18.45;;
52031;SDS011;38044;45.148;39.604;2024-03-08T08:35:04;30.80;;;18.10;;
52031;SDS011;38044;45.148;39.604;2024-03-08T08:37:31;29.38;;;17.33;;
52031;SDS011;38044;45.148;39.604;2024-03-08T08:39:59;32.20;;;18.90;;
52031;SDS011;38044;45.148;39.604;2024-03-08T08:42:30;30.73;;;18.85;;
52031;SDS011;38044;45.148;39.604;2024-03-08T08:44:57;26.15;;;16.10;;
52031;SDS011;38044;45.148;39.604;2024-03-08T08:47:23;30.38;;;17.95;;
52031;SDS011;38044;45.148;39.604;2024-03-08T08:49:49;30.75;;;18.05;;
52031;SDS011;38044;45.148;39.604;2024-03-08T08:52:16;31.55;;;17.90;;
52031;SDS011;38044;45.148;39.604;2024-03-08T08:54:42;31.90;;;18.13;;
52031;SDS011;38044;45.148;39.604;2024-03-08T08:57:10;29.15;;;18.35;;
52031;SDS011;38044;45.148;39.604;2024-03-08T08:59:36;28.95;;;18.27;;
52031;SDS011;38044;45.148;39.604;2024-03-08T09:02:07;26.95;;;17.63;;
52031;SDS011;38044;45.148;39.604;2024-03-08T09:04:34;30.23;;;18.17;;
52031;SDS011;38044;45.148;39.604;2024-03-08T09:07:01;32.78;;;18.80;;
52031;SDS011;38044;45.148;39.604;2024-03-08T09:09:27;30.58;;;18.15;;
52031;SDS011;38044;45.148;39.604;2024-03-08T09:12:09;33.22;;;18.55;;
52031;SDS011;38044;45.148;39.604;2024-03-08T09:14:40;32.65;;;19.40;;
52031;SDS011;38044;45.148;39.604;2024-03-08T09:17:07;28.58;;;18.35;;
52031;SDS011;38044;45.148;39.604;2024-03-08T09:19:37;29.63;;;18.30;;
52031;SDS011;38044;45.148;39.604;2024-03-08T09:22:03;32.47;;;19.40;;
52031;SDS011;38044;45.148;39.604;2024-03-08T09:24:29;33.03;;;19.85;;
52031;SDS011;38044;45.148;39.604;2024-03-08T09:26:56;33.17;;;19.58;;
52031;SDS011;38044;45.148;39.604;2024-03-08T09:29:24;32.50;;;19.98;;
52031;SDS011;38044;45.148;39.604;2024-03-08T09:31:49;27.58;;;18.48;;
52031;SDS011;38044;45.148;39.604;2024-03-08T09:34:16;35.55;;;19.52;;
52031;SDS011;38044;45.148;39.604;2024-03-08T09:36:44;34.72;;;19.90;;
52031;SDS011;38044;45.148;39.604;2024-03-08T09:39:10;32.53;;;20.17;;
52031;SDS011;38044;45.148;39.604;2024-03-08T09:41:42;31.27;;;19.05;;
52031;SDS011;38044;45.148;39.604;2024-03-08T09:44:09;28.50;;;17.15;;
52031;SDS011;38044;45.148;39.604;2024-03-08T09:46:35;28.13;;;17.83;;
52031;SDS011;38044;45.148;39.604;2024-03-08T09:49:01;31.73;;;18.58;;
52031;SDS011;38044;45.148;39.604;2024-03-08T09:51:27;27.63;;;17.38;;
52031;SDS011;38044;45.148;39.604;2024-03-08T09:53:54;28.00;;;17.23;;
52031;SDS011;38044;45.148;39.604;2024-03-08T09:56:21;27.50;;;17.90;;
52031;SDS011;38044;45.148;39.604;2024-03-08T09:58:49;27.75;;;16.23;;
52031;SDS011;38044;45.148;39.604;2024-03-08T10:01:37;31.10;;;18.58;;
52031;SDS011;38044;45.148;39.604;2024-03-08T10:04:04;26.60;;;16.58;;
52031;SDS011;38044;45.148;39.604;2024-03-08T10:06:30;29.38;;;17.63;;
52031;SDS011;38044;45.148;39.604;2024-03-08T10:08:59;28.77;;;17.38;;
52031;SDS011;38044;45.148;39.604;2024-03-08T10:11:24;27.65;;;17.48;;
52031;SDS011;38044;45.148;39.604;2024-03-08T10:13:52;27.42;;;17.50;;
52031;SDS011;38044;45.148;39.604;2024-03-08T10:16:18;27.17;;;17.08;;
52031;SDS011;38044;45.148;39.604;2024-03-08T10:18:46;26.20;;;16.77;;
52031;SDS011;38044;45.148;39.604;2024-03-08T10:21:12;27.98;;;17.00;;
52031;SDS011;38044;45.148;39.604;2024-03-08T10:23:40;25.85;;;17.48;;
52031;SDS011;38044;45.148;39.604;2024-03-08T10:26:15;38.30;;;23.98;;
52031;SDS011;38044;45.148;39.604;2024-03-08T10:31:11;29.52;;;18.75;;
52031;SDS011;38044;45.148;39.604;2024-03-08T10:33:37;25.77;;;16.77;;
52031;SDS011;38044;45.148;39.604;2024-03-08T10:36:09;26.80;;;17.10;;
52031;SDS011;38044;45.148;39.604;2024-03-08T10:38:36;28.30;;;18.17;;
52031;SDS011;38044;45.148;39.604;2024-03-08T10:41:05;26.77;;;17.10;;
52031;SDS011;38044;45.148;39.604;2024-03-08T10:49:24;26.75;;;16.83;;
52031;SDS011;38044;45.148;39.604;2024-03-08T10:51:55;29.55;;;16.08;;
52031;SDS011;38044;45.148;39.604;2024-03-08T10:54:23;28.23;;;17.30;;
52031;SDS011;38044;45.148;39.604;2024-03-08T10:56:51;26.70;;;16.73;;
52031;SDS011;38044;45.148;39.604;2024-03-08T10:59:18;25.25;;;16.70;;
52031;SDS011;38044;45.148;39.604;2024-03-08T11:01:45;23.58;;;16.02;;
52031;SDS011;38044;45.148;39.604;2024-03-08T11:04:12;25.08;;;16.50;;
52031;SDS011;38044;45.148;39.604;2024-03-08T11:14:54;27.45;;;17.10;;
52031;SDS011;38044;45.148;39.604;2024-03-08T11:17:25;25.80;;;17.25;;
52031;SDS011;38044;45.148;39.604;2024-03-08T11:19:57;29.58;;;16.98;;
52031;SDS011;38044;45.148;39.604;2024-03-08T11:22:33;26.80;;;17.08;;
52031;SDS011;38044;45.148;39.604;2024-03-08T11:25:01;29.52;;;19.35;;
52031;SDS011;38044;45.148;39.604;2024-03-08T11:27:29;26.45;;;17.08;;
52031;SDS011;38044;45.148;39.604;2024-03-08T11:29:59;29.55;;;17.85;;
52031;SDS011;38044;45.148;39.604;2024-03-08T11:32:46;27.77;;;17.73;;
52031;SDS011;38044;45.148;39.604;2024-03-08T11:35:19;28.60;;;18.35;;
52031;SDS011;38044;45.148;39.604;2024-03-08T11:37:48;29.05;;;17.98;;
52031;SDS011;38044;45.148;39.604;2024-03-08T11:40:20;26.42;;;17.52;;
52031;SDS011;38044;45.148;39.604;2024-03-08T11:42:50;29.13;;;18.23;;
52031;SDS011;38044;45.148;39.604;2024-03-08T11:45:17;28.27;;;17.67;;
52031;SDS011;38044;45.148;39.604;2024-03-08T11:47:46;39.72;;;27.98;;
52031;SDS011;38044;45.148;39.604;2024-03-08T11:50:12;29.08;;;19.10;;
52031;SDS011;38044;45.148;39.604;2024-03-08T11:52:39;26.85;;;17.55;;
52031;SDS011;38044;45.148;39.604;2024-03-08T11:55:05;28.65;;;17.92;;
52031;SDS011;38044;45.148;39.604;2024-03-08T11:57:32;27.13;;;16.98;;
52031;SDS011;38044;45.148;39.604;2024-03-08T11:59:58;31.35;;;17.75;;
52031;SDS011;38044;45.148;39.604;2024-03-08T12:02:35;25.55;;;17.45;;
52031;SDS011;38044;45.148;39.604;2024-03-08T12:05:03;26.75;;;18.10;;
52031;SDS011;38044;45.148;39.604;2024-03-08T12:07:29;30.05;;;19.02;;
52031;SDS011;38044;45.148;39.604;2024-03-08T12:13:00;28.48;;;18.23;;
52031;SDS011;38044;45.148;39.604;2024-03-08T12:15:28;29.48;;;18.67;;
52031;SDS011;38044;45.148;39.604;2024-03-08T12:17:58;29.50;;;17.95;;
52031;SDS011;38044;45.148;39.604;2024-03-08T12:20:26;27.80;;;19.35;;
52031;SDS011;38044;45.148;39.604;2024-03-08T12:23:15;28.20;;;19.17;;
52031;SDS011;38044;45.148;39.604;2024-03-08T12:25:41;30.08;;;19.75;;
52031;SDS011;38044;45.148;39.604;2024-03-08T12:28:11;28.85;;;18.80;;
52031;SDS011;38044;45.148;39.604;2024-03-08T12:30:49;40.55;;;20.30;;
52031;SDS011;38044;45.148;39.604;2024-03-08T12:33:21;31.25;;;19.70;;
52031;SDS011;38044;45.148;39.604;2024-03-08T12:35:50;30.35;;;19.45;;
52031;SDS011;38044;45.148;39.604;2024-03-08T12:38:21;43.45;;;27.02;;
52031;SDS011;38044;45.148;39.604;2024-03-08T12:40:58;30.20;;;19.20;;
52031;SDS011;38044;45.148;39.604;2024-03-08T12:43:28;29.42;;;18.55;;
52031;SDS011;38044;45.148;39.604;2024-03-08T12:45:59;29.77;;;18.20;;
52031;SDS011;38044;45.148;39.604;2024-03-08T12:48:25;37.50;;;24.75;;
52031;SDS011;38044;45.148;39.604;2024-03-08T12:50:50;32.38;;;20.75;;
52031;SDS011;38044;45.148;39.604;2024-03-08T12:53:17;52.22;;;31.98;;
52031;SDS011;38044;45.148;39.604;2024-03-08T12:55:43;27.42;;;19.10;;
52031;SDS011;38044;45.148;39.604;2024-03-08T12:58:09;31.05;;;20.67;;
52031;SDS011;38044;45.148;39.604;2024-03-08T13:00:35;37.40;;;23.15;;
52031;SDS011;38044;45.148;39.604;2024-03-08T13:03:08;30.30;;;19.73;;
52031;SDS011;38044;45.148;39.604;2024-03-08T13:05:36;30.02;;;18.38;;
52031;SDS011;38044;45.148;39.604;2024-03-08T13:08:05;33.10;;;20.42;;
52031;SDS011;38044;45.148;39.604;2024-03-08T13:10:37;30.70;;;19.43;;
52031;SDS011;38044;45.148;39.604;2024-03-08T13:13:04;34.65;;;21.00;;
52031;SDS011;38044;45.148;39.604;2024-03-08T13:15:30;28.88;;;18.83;;
52031;SDS011;38044;45.148;39.604;2024-03-08T13:17:56;35.80;;;20.73;;
52031;SDS011;38044;45.148;39.604;2024-03-08T13:20:25;30.95;;;19.55;;
52031;SDS011;38044;45.148;39.604;2024-03-08T13:22:53;33.35;;;19.52;;
52031;SDS011;38044;45.148;39.604;2024-03-08T13:25:20;31.08;;;18.30;;
52031;SDS011;38044;45.148;39.604;2024-03-08T13:27:46;27.67;;;18.23;;
52031;SDS011;38044;45.148;39.604;2024-03-08T13:30:12;31.15;;;19.40;;
52031;SDS011;38044;45.148;39.604;2024-03-08T13:32:40;26.77;;;18.48;;
52031;SDS011;38044;45.148;39.604;2024-03-08T13:35:09;27.48;;;18.17;;
52031;SDS011;38044;45.148;39.604;2024-03-08T13:37:38;28.75;;;19.63;;
52031;SDS011;38044;45.148;39.604;2024-03-08T13:40:08;31.30;;;20.02;;
52031;SDS011;38044;45.148;39.604;2024-03-08T13:42:42;36.53;;;22.75;;
52031;SDS011;38044;45.148;39.604;2024-03-08T13:45:11;43.10;;;25.13;;
52031;SDS011;38044;45.148;39.604;2024-03-08T13:47:41;32.38;;;21.30;;
52031;SDS011;38044;45.148;39.604;2024-03-08T13:50:16;36.72;;;24.15;;
52031;SDS011;38044;45.148;39.604;2024-03-08T13:52:55;40.65;;;26.27;;
52031;SDS011;38044;45.148;39.604;2024-03-08T13:55:21;42.20;;;27.30;;
52031;SDS011;38044;45.148;39.604;2024-03-08T13:57:47;40.65;;;25.75;;
52031;SDS011;38044;45.148;39.604;2024-03-08T14:00:14;37.65;;;23.15;;
52031;SDS011;38044;45.148;39.604;2024-03-08T14:02:40;30.05;;;19.70;;
52031;SDS011;38044;45.148;39.604;2024-03-08T14:05:07;35.08;;;21.40;;
52031;SDS011;38044;45.148;39.604;2024-03-08T14:07:34;39.10;;;23.80;;
52031;SDS011;38044;45.148;39.604;2024-03-08T14:10:01;40.90;;;24.30;;
52031;SDS011;38044;45.148;39.604;2024-03-08T14:12:26;39.88;;;25.15;;
52031;SDS011;38044;45.148;39.604;2024-03-08T14:14:53;33.05;;;20.73;;
52031;SDS011;38044;45.148;39.604;2024-03-08T14:17:19;32.05;;;20.52;;
52031;SDS011;38044;45.148;39.604;2024-03-08T14:19:45;30.90;;;19.65;;
52031;SDS011;38044;45.148;39.604;2024-03-08T14:22:11;28.70;;;17.92;;
52031;SDS011;38044;45.148;39.604;2024-03-08T14:24:40;30.02;;;19.08;;
52031;SDS011;38044;45.148;39.604;2024-03-08T14:27:07;27.75;;;18.90;;
52031;SDS011;38044;45.148;39.604;2024-03-08T14:29:35;28.50;;;19.15;;